Terminal Aerodrome Forecast
Issued by NWS

Home | Current Version | Previous Version | Text Only | Print | Product List | Glossary On
Versions: 1 2 3 4 5 6 7 8 9 10 11 12 13 14 15 16 17 18
000
FTUS46 KMTR 041720
TAFSNS
TAF
KSNS 041720Z 0418/0518 28005KT P6SM FEW010
     FM042100 29012KT P6SM SKC
     FM050200 27010KT P6SM OVC009
     FM050600 VRB04KT P6SM OVC005
     FM051200 VRB02KT 2SM BR OVC003
     FM051700 VRB04KT P6SM FEW008=

USA.gov is the U.S. government's official web portal to all federal, state and local government web resources and services.